CDT,Max TemperatureF,Mean TemperatureF,Min TemperatureF,Max Dew PointF,MeanDew PointF,Min DewpointF,Max Humidity, Mean Humidity, Min Humidity, Max Sea Level PressureIn, Mean Sea Level PressureIn, Min Sea Level PressureIn, Max VisibilityMiles, Mean VisibilityMiles, Min VisibilityMiles, Max Wind SpeedMPH, Mean Wind SpeedMPH, Max Gust SpeedMPH,PrecipitationIn, CloudCover, Events, WindDirDegrees
2013-10-1,83,69,55,67,57,49,100,65,41,29.98,29.89,29.86,10,10,4,23,13,29,0.00,1,,226
2013-10-2,79,68,56,52,44,34,80,47,21,30.12,30.04,29.98,10,10,7,12,6,,0.00,0,,77
2013-10-3,74,66,58,74,65,43,100,96,53,29.97,29.90,29.83,10,7,0,13,7,20,0.11,5,Fog-Rain-Thunderstorm,157
2013-10-4,69,66,64,69,67,65,100,100,100,30.00,29.93,29.87,10,7,1,21,9,28,0.12,5,Rain-Thunderstorm,192
2013-10-5,,,,,,,,,,,,,,,,,,,,,,
2013-10-6,,,,,,,,,,,,,,,,,,,,,,
2013-10-7,69,58,46,52,43,39,100,55,35,30.08,29.97,29.87,10,10,10,17,9,25,0.00,0,,302
2013-10-8,75,62,48,48,43,40,87,54,27,30.15,30.11,30.08,10,10,10,17,8,24,0.00,0,,175
2013-10-9,73,61,49,52,43,35,100,58,25,30.22,30.17,30.12,10,10,10,12,9,18,0.00,0,,162
2013-10-10,74,62,49,57,49,45,100,70,35,30.17,30.10,30.04,10,9,4,13,7,,0.00,0,,143
2013-10-11,76,64,53,64,55,52,100,75,44,30.05,29.98,29.90,10,9,4,22,9,29,0.00,2,,142
2013-10-12,67,59,51,66,48,36,100,64,35,30.17,29.99,29.90,10,10,7,23,13,29,0.06,3,Rain-Thunderstorm,222
2013-10-13,61,52,44,38,33,30,69,48,31,30.40,30.34,30.18,10,10,10,13,8,18,0.00,0,,313
2013-10-14,63,51,39,48,39,31,100,64,41,30.41,30.30,30.10,10,10,5,15,7,21,0.00,1,,84
2013-10-15,63,56,48,63,48,41,100,83,62,30.09,29.87,29.74,10,8,2,23,12,30,0.31,6,Rain,185
2013-10-16,51,50,48,52,50,45,100,98,81,29.94,29.86,29.80,10,8,2,21,14,29,0.00,8,,255
2013-10-17,54,48,42,48,42,36,100,80,54,29.92,29.86,29.82,10,8,2,14,4,,0.01,5,Rain,253
2013-10-18,47,44,40,46,39,34,100,81,60,29.94,29.89,29.80,10,10,10,21,11,26,0.00,5,,254
2013-10-19,51,43,35,44,38,30,100,88,42,29.91,29.81,29.74,10,10,10,25,9,32,0.00,4,,232
2013-10-20,53,44,34,51,43,34,100,91,63,29.83,29.77,29.70,10,10,4,16,9,23,0.00,4,Rain,214
2013-10-21,46,40,32,47,29,20,100,68,44,29.95,29.90,29.78,10,10,10,20,13,29,0.00,5,,269
2013-10-22,43,36,28,31,26,24,98,71,49,29.96,29.93,29.89,10,10,10,13,7,,0.00,2,,273
2013-10-23,42,36,29,33,28,21,100,75,47,30.01,29.97,29.94,10,10,10,20,8,23,0.00,7,,291
2013-10-24,42,37,32,27,23,21,77,61,45,30.29,30.16,30.00,10,10,10,15,8,21,0.00,6,,299
2013-10-25,51,40,29,30,25,22,91,56,37,30.35,30.20,29.95,10,10,10,30,14,38,0.00,2,,237
2013-10-26,51,45,37,33,28,24,69,53,36,30.07,29.93,29.81,10,10,10,29,18,36,0.00,2,,277
2013-10-27,54,42,29,32,28,26,99,62,36,30.06,29.98,29.91,10,10,10,20,10,26,0.00,0,,230
2013-10-28,43,38,32,37,32,28,100,76,63,30.37,30.25,30.02,10,10,10,20,11,29,0.00,5,,40
2013-10-29,54,44,34,44,37,29,100,77,55,30.36,30.24,30.10,10,10,10,12,8,16,0.00,4,,78
2013-10-30,59,52,44,60,51,44,100,99,92,30.10,29.97,29.73,10,3,0,18,8,26,0.04,8,Fog-Rain,139
2013-10-31,61,52,42,61,55,42,100,100,100,29.71,29.45,29.29,10,7,1,22,14,30,0.59,8,Rain,236